Terminal Aerodrome Forecast
Issued by NWS

Home | Current Version | Previous Version | Text Only | Print | Product List | Glossary On
Versions: 1 2 3 4 5 6 7 8 9 10 11 12 13 14
000
FTUS45 KABQ 250534
TAFTCC
TAF
KTCC 250534Z 2506/2606 24014G22KT P6SM BKN180
     FM251500 25024G36KT P6SM SCT080 BKN120
     FM252100 26028G40KT P6SM BKN080=

USA.gov is the U.S. government's official web portal to all federal, state and local government web resources and services.